Flight Track Log - Related Links

Times and Time Zones

All times are in EST time to prevent confusion due to time zone crossing. See the N1808R flight status page for this flight to view local times or setup timezone preferences in your user account.

Time Position Orientation Groundspeed Altitude Reporting Facility
EST Latitude Longitude Course Direction KTS MPH feet Rate Location/Type
Fri 01:13:44 PM 31.8803 -96.5106 225° Southwest 139 160 5,100  Level Fort Worth Center
Fri 01:14:44 PM 31.8575 -96.5378 225° Southwest 139 160 5,800 700 Climbing Fort Worth Center
Fri 01:15:44 PM 31.8264 -96.5650 217° Southwest 139 160 6,500 650 Climbing Fort Worth Center
Fri 01:16:44 PM 31.7972 -96.5944 221° Southwest 139 160 7,100 600 Climbing Fort Worth Center
Fri 01:17:44 PM 31.7683 -96.6264 223° Southwest 139 160 7,700 635 Climbing Fort Worth Center
Fri 01:18:28 PM 31.7436 -96.6492 218° Southwest 141 162 8,200 617 Climbing Houston Center
Fri 01:19:31 PM 31.7156 -96.6792 222° Southwest 136 157 8,800 576 Climbing Houston Center
Fri 01:20:33 PM 31.6872 -96.7086 221° Southwest 135 155 9,400 581 Climbing Houston Center
Fri 01:21:35 PM 31.6569 -96.7400 221° Southwest 141 162 10,000 581 Climbing Houston Center
Fri 01:22:37 PM 31.6256 -96.7736 222° Southwest 147 169 10,600 532 Climbing Houston Center
Fri 01:23:39 PM 31.5914 -96.8067 219° Southwest 154 177 11,100 581 Climbing Houston Center
Fri 01:24:41 PM 31.5511 -96.8486 222° Southwest 162 186 11,800 629 Climbing Houston Center
Fri 01:25:43 PM 31.5172 -96.8844 222° Southwest 163 188 12,400 528 Climbing Houston Center
Fri 01:26:46 PM 31.4819 -96.9197 220° Southwest 165 190 12,900 480 Climbing Houston Center
Fri 01:27:48 PM 31.4464 -96.9553 220° Southwest 167 192 13,400 532 Climbing Houston Center
Fri 01:28:50 PM 31.4119 -96.9922 222° Southwest 168 193 14,000 484 Climbing Houston Center
Fri 01:29:52 PM 31.3758 -97.0281 220° Southwest 168 193 14,400 290 Climbing Houston Center
Fri 01:30:54 PM 31.3322 -97.0725 221° Southwest 175 201 14,600 48 Climbing Houston Center
Fri 01:31:56 PM 31.2919 -97.1142 221° Southwest 192 221 14,500 -48 Descending Houston Center
Fri 01:32:59 PM 31.2511 -97.1547 220° Southwest 187 215 14,500 48 Level Houston Center
Fri 01:34:01 PM 31.2142 -97.1928 221° Southwest 181 208 14,600  Climbing Houston Center
Fri 01:35:03 PM 31.1769 -97.2303 221° Southwest 177 204 14,500 -48 Descending Houston Center
Fri 01:36:05 PM 31.1392 -97.2678 220° Southwest 178 205 14,500  Level Houston Center
Fri 01:37:07 PM 31.0964 -97.3114 221° Southwest 175 201 14,500  Level Houston Center
Fri 01:38:09 PM 31.0597 -97.3494 222° Southwest 177 204 14,500  Level Houston Center
Fri 01:39:11 PM 31.0219 -97.3878 221° Southwest 179 206 14,500  Level Houston Center
Fri 01:40:14 PM 30.9839 -97.4264 221° Southwest 181 208 14,500  Level Houston Center
Fri 01:41:16 PM 30.9458 -97.4642 220° Southwest 180 207 14,500  Level Houston Center
Fri 01:42:18 PM 30.9014 -97.5083 220° Southwest 179 206 14,500  Level Houston Center
Fri 01:43:20 PM 30.8631 -97.5469 221° Southwest 180 207 14,500  Level Houston Center
Fri 01:44:22 PM 30.8242 -97.5864 221° Southwest 182 209 14,500  Level Houston Center
Fri 01:45:24 PM 30.7853 -97.6253 221° Southwest 183 211 14,500  Level Houston Center
Fri 01:46:26 PM 30.7472 -97.6636 221° Southwest 180 207 14,500  Level Houston Center
Fri 01:47:29 PM 30.7083 -97.7022 220° Southwest 181 208 14,500  Level Houston Center
Fri 01:48:31 PM 30.6706 -97.7400 221° Southwest 180 207 14,500  Level Houston Center
Fri 01:49:33 PM 30.6258 -97.7844 221° Southwest 179 206 14,500  Level Houston Center
Fri 01:50:35 PM 30.5872 -97.8233 221° Southwest 180 207 14,500  Level Houston Center
Fri 01:51:37 PM 30.5483 -97.8625 221° Southwest 182 209 14,500  Level Houston Center
Fri 01:52:39 PM 30.5086 -97.8997 219° Southwest 182 209 14,500  Level Houston Center
Fri 01:53:42 PM 30.4733 -97.9381 223° Southwest 175 201 14,500  Level Houston Center
Fri 01:54:44 PM 30.4353 -97.9736 219° Southwest 174 200 14,500  Level Houston Center
Fri 01:55:46 PM 30.3914 -98.0172 221° Southwest 175 201 14,500  Level Houston Center
Fri 01:56:48 PM 30.3542 -98.0553 221° Southwest 176 203 14,500  Level Houston Center
Fri 01:57:50 PM 30.3164 -98.0928 221° Southwest 174 200 14,500  Level Houston Center
Fri 01:58:52 PM 30.2764 -98.1319 220° Southwest 175 201 14,500  Level Houston Center
Fri 01:59:54 PM 30.2397 -98.1694 221° Southwest 177 204 14,500  Level Houston Center
Fri 02:00:56 PM 30.1989 -98.2092 220° Southwest 178 205 14,500 -48 Level Houston Center
Fri 02:01:59 PM 30.1614 -98.2453 220° Southwest 176 203 14,400 -48 Descending Houston Center
Fri 02:03:01 PM 30.1211 -98.2850 220° Southwest 177 204 14,400  Level Houston Center
Fri 02:04:03 PM 30.0839 -98.3219 221° Southwest 177 204 14,400  Level Houston Center
Fri 02:05:05 PM 30.0439 -98.3606 220° Southwest 174 200 14,400  Level Houston Center
Fri 02:06:07 PM 30.0069 -98.3967 220° Southwest 175 201 14,400  Level Houston Center
Fri 02:07:09 PM 29.9669 -98.4361 221° Southwest 175 201 14,400  Level Houston Center
Fri 02:08:11 PM 29.9294 -98.4733 221° Southwest 177 204 14,400  Level Houston Center
Fri 02:09:13 PM 29.8894 -98.5128 221° Southwest 177 204 14,400 -48 Level Houston Center
Fri 02:10:16 PM 29.8511 -98.5503 220° Southwest 181 208 14,300 -192 Descending Houston Center
Fri 02:11:18 PM 29.8117 -98.5886 220° Southwest 186 214 14,000 -290 Descending Houston Center
Fri 02:12:20 PM 29.7686 -98.6311 221° Southwest 190 219 13,700 -290 Descending Houston Center
Fri 02:13:22 PM 29.7283 -98.6700 220° Southwest 189 217 13,400 -242 Descending Houston Center
Fri 02:14:24 PM 29.6853 -98.7119 220° Southwest 188 216 13,200 -290 Descending Houston Center
Fri 02:15:26 PM 29.6453 -98.7497 219° Southwest 188 216 12,800 -387 Descending Houston Center
Fri 02:16:28 PM 29.6019 -98.7917 220° Southwest 189 217 12,400 -387 Descending Houston Center
Fri 02:17:30 PM 29.5617 -98.8297 219° Southwest 189 217 12,000 -384 Descending Houston Center
Fri 02:18:33 PM 29.5189 -98.8717 220° Southwest 188 216 11,600 -432 Descending Houston Center
Fri 02:19:35 PM 29.4797 -98.9094 220° Southwest 185 213 11,100 -435 Descending Houston Center
Fri 02:20:37 PM 29.4372 -98.9511 220° Southwest 186 214 10,700 -387 Descending Houston Center
Fri 02:21:39 PM 29.3964 -98.9903 220° Southwest 189 217 10,300 -384 Descending Houston Center
Fri 02:22:42 PM 29.3522 -99.0322 220° Southwest 191 220 9,900 -384 Descending Houston Center
Fri 02:23:44 PM 29.3117 -99.0717 220° Southwest 191 220 9,500 -387 Descending Houston Center
Fri 02:24:46 PM 29.2692 -99.1133 221° Southwest 188 216 9,100 -435 Descending Houston Center
Fri 02:25:48 PM 29.2286 -99.1522 220° Southwest 189 217 8,600 -484 Descending Houston Center
Fri 02:26:50 PM 29.1858 -99.1936 220° Southwest 187 215 8,100 -484 Descending Houston Center
Fri 02:27:52 PM 29.1453 -99.2322 220° Southwest 189 217 7,600 -484 Descending Houston Center
Fri 02:28:54 PM 29.1014 -99.2736 219° Southwest 189 217 7,100 -480 Descending Houston Center
Fri 02:29:57 PM 29.0597 -99.3128 219° Southwest 192 221 6,600 -480 Descending Houston Center
Fri 02:30:59 PM 29.0194 -99.3508 220° Southwest 196 226 6,100 -242 Descending Houston Center
Fri 02:32:01 PM 28.9797 -99.3897 221° Southwest 193 222 6,100  Level Houston Center
Fri 02:33:03 PM 28.9419 -99.4250 219° Southwest 187 215 6,100  Level Houston Center
Fri 02:34:05 PM 28.8994 -99.4658 220° Southwest 178 205 6,100  Level Houston Center
Fri 02:35:07 PM 28.8633 -99.4994 219° Southwest 173 199 6,100  Level Houston Center
Fri 02:36:09 PM 28.8269 -99.5331 219° Southwest 170 196 6,100  Level Houston Center
Fri 02:37:11 PM 28.7894 -99.5681 219° Southwest 171 197 6,100 -144 Level Houston Center
Fri 02:38:14 PM 28.7522 -99.6044 221° Southwest 175 201 5,800 -286 Descending Houston Center

Login

Don't have an account? Register now (free) for customized features, flight alerts, and more!